sensor_id;sensor_type;location;lat;lon;timestamp;temperature;humidity
33841;DHT22;20142;28.494;-16.312;2023-12-28T00:02:25;16.00;81.50
33841;DHT22;20142;28.494;-16.312;2023-12-28T00:07:27;15.90;81.90
33841;DHT22;20142;28.494;-16.312;2023-12-28T00:12:29;16.00;82.30
33841;DHT22;20142;28.494;-16.312;2023-12-28T00:17:30;16.00;82.40
33841;DHT22;20142;28.494;-16.312;2023-12-28T00:22:32;15.90;82.40
33841;DHT22;20142;28.494;-16.312;2023-12-28T00:27:34;15.90;82.90
33841;DHT22;20142;28.494;-16.312;2023-12-28T00:32:38;15.90;83.00
33841;DHT22;20142;28.494;-16.312;2023-12-28T00:37:40;15.90;83.10
33841;DHT22;20142;28.494;-16.312;2023-12-28T00:42:41;15.90;83.30
33841;DHT22;20142;28.494;-16.312;2023-12-28T00:47:43;15.80;83.60
33841;DHT22;20142;28.494;-16.312;2023-12-28T00:52:45;15.60;83.80
33841;DHT22;20142;28.494;-16.312;2023-12-28T00:57:47;15.50;84.20
33841;DHT22;20142;28.494;-16.312;2023-12-28T01:02:48;15.40;85.10
33841;DHT22;20142;28.494;-16.312;2023-12-28T01:07:50;15.40;85.20
33841;DHT22;20142;28.494;-16.312;2023-12-28T01:12:52;15.40;85.30
33841;DHT22;20142;28.494;-16.312;2023-12-28T01:17:54;15.30;85.50
33841;DHT22;20142;28.494;-16.312;2023-12-28T01:22:56;15.30;86.00
33841;DHT22;20142;28.494;-16.312;2023-12-28T01:27:57;15.20;85.70
33841;DHT22;20142;28.494;-16.312;2023-12-28T01:32:59;15.10;85.80
33841;DHT22;20142;28.494;-16.312;2023-12-28T01:38:01;15.10;86.00
33841;DHT22;20142;28.494;-16.312;2023-12-28T01:43:03;15.10;86.30
33841;DHT22;20142;28.494;-16.312;2023-12-28T01:48:05;15.00;86.20
33841;DHT22;20142;28.494;-16.312;2023-12-28T01:53:07;15.00;86.30
33841;DHT22;20142;28.494;-16.312;2023-12-28T01:58:10;15.00;86.50
33841;DHT22;20142;28.494;-16.312;2023-12-28T02:03:12;14.90;86.90
33841;DHT22;20142;28.494;-16.312;2023-12-28T02:08:14;14.80;86.80
33841;DHT22;20142;28.494;-16.312;2023-12-28T02:13:15;14.70;86.60
33841;DHT22;20142;28.494;-16.312;2023-12-28T02:18:21;14.60;86.90
33841;DHT22;20142;28.494;-16.312;2023-12-28T02:23:26;14.50;87.20
33841;DHT22;20142;28.494;-16.312;2023-12-28T02:28:28;14.30;87.30
33841;DHT22;20142;28.494;-16.312;2023-12-28T02:33:53;14.20;87.20
33841;DHT22;20142;28.494;-16.312;2023-12-28T02:38:58;14.10;87.20
33841;DHT22;20142;28.494;-16.312;2023-12-28T02:44:01;14.10;87.30
33841;DHT22;20142;28.494;-16.312;2023-12-28T02:49:03;14.00;87.50
33841;DHT22;20142;28.494;-16.312;2023-12-28T02:54:05;14.00;87.60
33841;DHT22;20142;28.494;-16.312;2023-12-28T02:59:07;13.90;87.70
33841;DHT22;20142;28.494;-16.312;2023-12-28T03:04:08;13.80;87.90
33841;DHT22;20142;28.494;-16.312;2023-12-28T03:09:10;13.80;87.80
33841;DHT22;20142;28.494;-16.312;2023-12-28T03:14:12;13.70;87.80
33841;DHT22;20142;28.494;-16.312;2023-12-28T03:19:14;13.70;87.80
33841;DHT22;20142;28.494;-16.312;2023-12-28T03:24:15;13.40;87.70
33841;DHT22;20142;28.494;-16.312;2023-12-28T03:29:17;13.20;87.90
33841;DHT22;20142;28.494;-16.312;2023-12-28T03:34:19;13.40;88.00
33841;DHT22;20142;28.494;-16.312;2023-12-28T03:39:20;13.30;87.90
33841;DHT22;20142;28.494;-16.312;2023-12-28T03:44:22;13.20;88.30
33841;DHT22;20142;28.494;-16.312;2023-12-28T03:49:24;13.30;88.20
33841;DHT22;20142;28.494;-16.312;2023-12-28T03:54:26;13.40;88.20
33841;DHT22;20142;28.494;-16.312;2023-12-28T03:59:27;13.30;87.90
33841;DHT22;20142;28.494;-16.312;2023-12-28T04:04:29;13.20;88.10
33841;DHT22;20142;28.494;-16.312;2023-12-28T04:09:31;13.10;88.00
33841;DHT22;20142;28.494;-16.312;2023-12-28T04:14:33;13.00;88.40
33841;DHT22;20142;28.494;-16.312;2023-12-28T04:19:34;13.00;88.20
33841;DHT22;20142;28.494;-16.312;2023-12-28T04:24:37;12.70;88.20
33841;DHT22;20142;28.494;-16.312;2023-12-28T04:29:38;12.70;88.40
33841;DHT22;20142;28.494;-16.312;2023-12-28T04:34:40;12.60;88.90
33841;DHT22;20142;28.494;-16.312;2023-12-28T04:39:42;12.60;88.80
33841;DHT22;20142;28.494;-16.312;2023-12-28T04:44:43;12.60;88.60
33841;DHT22;20142;28.494;-16.312;2023-12-28T04:49:45;12.60;88.80
33841;DHT22;20142;28.494;-16.312;2023-12-28T04:54:47;12.50;88.90
33841;DHT22;20142;28.494;-16.312;2023-12-28T04:59:48;12.40;89.10
33841;DHT22;20142;28.494;-16.312;2023-12-28T05:04:50;12.50;88.80
33841;DHT22;20142;28.494;-16.312;2023-12-28T05:09:52;12.40;88.80
33841;DHT22;20142;28.494;-16.312;2023-12-28T05:14:53;12.30;88.80
33841;DHT22;20142;28.494;-16.312;2023-12-28T05:19:55;12.30;88.60
33841;DHT22;20142;28.494;-16.312;2023-12-28T05:24:57;12.30;89.00
33841;DHT22;20142;28.494;-16.312;2023-12-28T05:29:59;12.30;88.80
33841;DHT22;20142;28.494;-16.312;2023-12-28T05:35:00;12.30;88.50
33841;DHT22;20142;28.494;-16.312;2023-12-28T05:40:02;12.40;88.80
33841;DHT22;20142;28.494;-16.312;2023-12-28T05:45:04;12.40;88.70
33841;DHT22;20142;28.494;-16.312;2023-12-28T05:50:07;12.30;88.20
33841;DHT22;20142;28.494;-16.312;2023-12-28T05:55:09;12.20;88.40
33841;DHT22;20142;28.494;-16.312;2023-12-28T06:00:11;12.10;88.20
33841;DHT22;20142;28.494;-16.312;2023-12-28T06:05:13;12.00;88.60
33841;DHT22;20142;28.494;-16.312;2023-12-28T06:10:15;12.00;88.70
33841;DHT22;20142;28.494;-16.312;2023-12-28T06:15:17;11.90;88.70
33841;DHT22;20142;28.494;-16.312;2023-12-28T06:20:19;11.90;88.70
33841;DHT22;20142;28.494;-16.312;2023-12-28T06:25:20;11.90;88.40
33841;DHT22;20142;28.494;-16.312;2023-12-28T06:30:22;11.80;88.30
33841;DHT22;20142;28.494;-16.312;2023-12-28T06:35:24;11.70;88.60
33841;DHT22;20142;28.494;-16.312;2023-12-28T06:40:25;11.60;88.60
33841;DHT22;20142;28.494;-16.312;2023-12-28T06:45:27;11.80;88.90
33841;DHT22;20142;28.494;-16.312;2023-12-28T06:50:29;11.80;88.70
33841;DHT22;20142;28.494;-16.312;2023-12-28T06:55:31;11.80;88.80
33841;DHT22;20142;28.494;-16.312;2023-12-28T07:00:32;11.90;88.50
33841;DHT22;20142;28.494;-16.312;2023-12-28T07:05:34;11.80;88.40
33841;DHT22;20142;28.494;-16.312;2023-12-28T07:10:36;11.80;88.90
33841;DHT22;20142;28.494;-16.312;2023-12-28T07:15:38;11.70;88.70
33841;DHT22;20142;28.494;-16.312;2023-12-28T07:20:40;11.80;89.10
33841;DHT22;20142;28.494;-16.312;2023-12-28T07:25:41;11.80;88.70
33841;DHT22;20142;28.494;-16.312;2023-12-28T07:30:43;11.80;88.20
33841;DHT22;20142;28.494;-16.312;2023-12-28T07:35:45;11.80;88.60
33841;DHT22;20142;28.494;-16.312;2023-12-28T07:40:47;11.80;88.90
33841;DHT22;20142;28.494;-16.312;2023-12-28T07:45:49;11.90;88.70
33841;DHT22;20142;28.494;-16.312;2023-12-28T07:50:50;12.00;88.40
33841;DHT22;20142;28.494;-16.312;2023-12-28T07:55:53;11.90;87.90
33841;DHT22;20142;28.494;-16.312;2023-12-28T08:00:54;11.80;88.20
33841;DHT22;20142;28.494;-16.312;2023-12-28T08:05:56;11.80;88.80
33841;DHT22;20142;28.494;-16.312;2023-12-28T08:10:58;12.00;88.50
33841;DHT22;20142;28.494;-16.312;2023-12-28T08:15:59;12.00;88.50
33841;DHT22;20142;28.494;-16.312;2023-12-28T08:21:01;12.50;89.10
33841;DHT22;20142;28.494;-16.312;2023-12-28T08:26:03;12.60;88.80
33841;DHT22;20142;28.494;-16.312;2023-12-28T08:31:06;13.10;88.90
33841;DHT22;20142;28.494;-16.312;2023-12-28T08:36:09;13.60;88.80
33841;DHT22;20142;28.494;-16.312;2023-12-28T08:41:22;13.90;88.80
33841;DHT22;20142;28.494;-16.312;2023-12-28T08:46:25;14.20;88.80
33841;DHT22;20142;28.494;-16.312;2023-12-28T08:51:27;14.30;88.90
33841;DHT22;20142;28.494;-16.312;2023-12-28T08:56:28;14.40;89.00
33841;DHT22;20142;28.494;-16.312;2023-12-28T09:01:31;14.40;89.30
33841;DHT22;20142;28.494;-16.312;2023-12-28T09:06:33;14.60;89.40
33841;DHT22;20142;28.494;-16.312;2023-12-28T09:11:35;14.70;89.50
33841;DHT22;20142;28.494;-16.312;2023-12-28T09:16:36;14.80;89.50
33841;DHT22;20142;28.494;-16.312;2023-12-28T09:21:40;15.10;89.60
33841;DHT22;20142;28.494;-16.312;2023-12-28T09:26:42;15.20;89.50
33841;DHT22;20142;28.494;-16.312;2023-12-28T09:31:45;15.20;89.50
33841;DHT22;20142;28.494;-16.312;2023-12-28T09:36:47;15.30;89.30
33841;DHT22;20142;28.494;-16.312;2023-12-28T09:42:04;15.40;89.40
33841;DHT22;20142;28.494;-16.312;2023-12-28T09:47:07;15.70;88.70
33841;DHT22;20142;28.494;-16.312;2023-12-28T09:52:08;16.00;88.70
33841;DHT22;20142;28.494;-16.312;2023-12-28T09:57:11;16.30;88.50
33841;DHT22;20142;28.494;-16.312;2023-12-28T10:02:13;16.50;88.20
33841;DHT22;20142;28.494;-16.312;2023-12-28T10:07:16;16.80;88.10
33841;DHT22;20142;28.494;-16.312;2023-12-28T10:12:17;17.10;87.40
33841;DHT22;20142;28.494;-16.312;2023-12-28T10:17:19;17.30;86.60
33841;DHT22;20142;28.494;-16.312;2023-12-28T10:22:21;17.60;85.50
33841;DHT22;20142;28.494;-16.312;2023-12-28T10:27:23;17.90;84.50
33841;DHT22;20142;28.494;-16.312;2023-12-28T10:32:25;18.30;83.00
33841;DHT22;20142;28.494;-16.312;2023-12-28T10:37:27;18.40;82.00
33841;DHT22;20142;28.494;-16.312;2023-12-28T10:42:41;18.70;80.90
33841;DHT22;20142;28.494;-16.312;2023-12-28T11:04:40;19.50;77.00
33841;DHT22;20142;28.494;-16.312;2023-12-28T11:09:43;19.70;76.20
33841;DHT22;20142;28.494;-16.312;2023-12-28T11:14:47;19.90;75.10
33841;DHT22;20142;28.494;-16.312;2023-12-28T11:19:53;20.10;74.10
33841;DHT22;20142;28.494;-16.312;2023-12-28T11:24:56;20.40;72.80
33841;DHT22;20142;28.494;-16.312;2023-12-28T11:29:58;20.70;71.50
33841;DHT22;20142;28.494;-16.312;2023-12-28T11:34:59;20.80;70.50
33841;DHT22;20142;28.494;-16.312;2023-12-28T11:40:13;20.90;68.90
33841;DHT22;20142;28.494;-16.312;2023-12-28T11:45:22;21.10;67.70
33841;DHT22;20142;28.494;-16.312;2023-12-28T11:50:24;21.30;66.60
33841;DHT22;20142;28.494;-16.312;2023-12-28T11:55:25;21.40;65.70
33841;DHT22;20142;28.494;-16.312;2023-12-28T12:00:27;21.40;64.60
33841;DHT22;20142;28.494;-16.312;2023-12-28T12:05:29;21.50;63.10
33841;DHT22;20142;28.494;-16.312;2023-12-28T12:10:31;21.50;62.10
33841;DHT22;20142;28.494;-16.312;2023-12-28T12:15:36;21.60;60.60
33841;DHT22;20142;28.494;-16.312;2023-12-28T12:20:38;21.80;59.60
33841;DHT22;20142;28.494;-16.312;2023-12-28T12:25:41;21.70;58.00
33841;DHT22;20142;28.494;-16.312;2023-12-28T12:30:53;21.80;56.70
33841;DHT22;20142;28.494;-16.312;2023-12-28T12:35:59;21.80;56.10
33841;DHT22;20142;28.494;-16.312;2023-12-28T12:41:01;21.90;55.30
33841;DHT22;20142;28.494;-16.312;2023-12-28T12:46:04;22.00;54.50
33841;DHT22;20142;28.494;-16.312;2023-12-28T12:51:06;22.20;53.50
33841;DHT22;20142;28.494;-16.312;2023-12-28T12:56:07;22.20;53.00
33841;DHT22;20142;28.494;-16.312;2023-12-28T13:01:12;22.40;51.80
33841;DHT22;20142;28.494;-16.312;2023-12-28T13:06:14;22.30;50.90
33841;DHT22;20142;28.494;-16.312;2023-12-28T13:11:15;22.30;50.70
33841;DHT22;20142;28.494;-16.312;2023-12-28T13:16:19;22.20;49.90
33841;DHT22;20142;28.494;-16.312;2023-12-28T13:21:21;22.30;49.70
33841;DHT22;20142;28.494;-16.312;2023-12-28T13:26:22;22.40;50.00
33841;DHT22;20142;28.494;-16.312;2023-12-28T13:31:24;22.50;49.20
33841;DHT22;20142;28.494;-16.312;2023-12-28T13:36:27;22.40;48.80
33841;DHT22;20142;28.494;-16.312;2023-12-28T13:41:29;22.50;48.60
33841;DHT22;20142;28.494;-16.312;2023-12-28T13:46:32;22.60;48.20
33841;DHT22;20142;28.494;-16.312;2023-12-28T13:51:35;22.80;47.80
33841;DHT22;20142;28.494;-16.312;2023-12-28T13:56:37;22.90;47.20
33841;DHT22;20142;28.494;-16.312;2023-12-28T14:01:39;23.10;46.50
33841;DHT22;20142;28.494;-16.312;2023-12-28T14:06:41;23.20;45.90
33841;DHT22;20142;28.494;-16.312;2023-12-28T14:11:43;23.50;46.00
33841;DHT22;20142;28.494;-16.312;2023-12-28T14:16:45;23.90;44.70
33841;DHT22;20142;28.494;-16.312;2023-12-28T14:21:46;24.20;44.50
33841;DHT22;20142;28.494;-16.312;2023-12-28T14:26:50;24.30;43.90
33841;DHT22;20142;28.494;-16.312;2023-12-28T14:31:54;24.20;44.00
33841;DHT22;20142;28.494;-16.312;2023-12-28T14:36:56;23.90;43.60
33841;DHT22;20142;28.494;-16.312;2023-12-28T14:41:58;23.70;43.00
33841;DHT22;20142;28.494;-16.312;2023-12-28T14:47:04;23.90;42.60
33841;DHT22;20142;28.494;-16.312;2023-12-28T14:52:06;24.20;41.80
33841;DHT22;20142;28.494;-16.312;2023-12-28T14:57:08;24.50;41.90
33841;DHT22;20142;28.494;-16.312;2023-12-28T15:02:10;24.90;41.40
33841;DHT22;20142;28.494;-16.312;2023-12-28T15:07:11;25.20;41.20
33841;DHT22;20142;28.494;-16.312;2023-12-28T15:12:13;25.70;40.90
33841;DHT22;20142;28.494;-16.312;2023-12-28T15:17:15;26.20;40.70
33841;DHT22;20142;28.494;-16.312;2023-12-28T15:22:17;26.90;40.20
33841;DHT22;20142;28.494;-16.312;2023-12-28T15:27:20;29.00;40.70
33841;DHT22;20142;28.494;-16.312;2023-12-28T15:32:22;30.80;38.60
33841;DHT22;20142;28.494;-16.312;2023-12-28T15:37:23;30.40;37.60
33841;DHT22;20142;28.494;-16.312;2023-12-28T15:42:25;30.70;36.60
33841;DHT22;20142;28.494;-16.312;2023-12-28T15:47:27;31.50;36.10
33841;DHT22;20142;28.494;-16.312;2023-12-28T15:52:29;33.30;34.80
33841;DHT22;20142;28.494;-16.312;2023-12-28T15:57:30;34.00;34.00
33841;DHT22;20142;28.494;-16.312;2023-12-28T16:02:32;33.20;33.80
33841;DHT22;20142;28.494;-16.312;2023-12-28T16:07:34;31.80;34.60
33841;DHT22;20142;28.494;-16.312;2023-12-28T16:12:36;30.50;34.20
33841;DHT22;20142;28.494;-16.312;2023-12-28T16:17:38;30.20;33.50
33841;DHT22;20142;28.494;-16.312;2023-12-28T16:22:40;30.40;34.10
33841;DHT22;20142;28.494;-16.312;2023-12-28T16:27:42;29.70;33.50
33841;DHT22;20142;28.494;-16.312;2023-12-28T16:32:43;29.10;34.10
33841;DHT22;20142;28.494;-16.312;2023-12-28T16:37:47;29.00;34.10
33841;DHT22;20142;28.494;-16.312;2023-12-28T16:42:48;32.80;32.70
33841;DHT22;20142;28.494;-16.312;2023-12-28T16:47:50;39.00;31.20
33841;DHT22;20142;28.494;-16.312;2023-12-28T16:52:53;40.60;30.40
33841;DHT22;20142;28.494;-16.312;2023-12-28T16:57:58;41.70;29.50
33841;DHT22;20142;28.494;-16.312;2023-12-28T17:03:00;41.80;29.50
33841;DHT22;20142;28.494;-16.312;2023-12-28T17:08:02;42.30;28.90
33841;DHT22;20142;28.494;-16.312;2023-12-28T17:13:04;42.20;28.40
33841;DHT22;20142;28.494;-16.312;2023-12-28T17:18:07;42.00;28.10
33841;DHT22;20142;28.494;-16.312;2023-12-28T17:23:15;41.50;27.80
33841;DHT22;20142;28.494;-16.312;2023-12-28T17:28:24;38.60;27.80
33841;DHT22;20142;28.494;-16.312;2023-12-28T17:33:26;35.60;27.70
33841;DHT22;20142;28.494;-16.312;2023-12-28T17:38:28;31.30;28.60
33841;DHT22;20142;28.494;-16.312;2023-12-28T17:43:40;28.50;29.70
33841;DHT22;20142;28.494;-16.312;2023-12-28T17:48:59;26.80;29.50
33841;DHT22;20142;28.494;-16.312;2023-12-28T17:54:04;25.80;30.40
33841;DHT22;20142;28.494;-16.312;2023-12-28T17:59:06;24.80;30.30
33841;DHT22;20142;28.494;-16.312;2023-12-28T18:04:08;24.10;30.50
33841;DHT22;20142;28.494;-16.312;2023-12-28T18:09:09;23.50;31.70
33841;DHT22;20142;28.494;-16.312;2023-12-28T18:14:11;23.00;32.10
33841;DHT22;20142;28.494;-16.312;2023-12-28T18:19:13;22.40;32.20
33841;DHT22;20142;28.494;-16.312;2023-12-28T18:24:14;21.90;32.90
33841;DHT22;20142;28.494;-16.312;2023-12-28T18:29:16;21.50;33.40
33841;DHT22;20142;28.494;-16.312;2023-12-28T18:34:18;21.20;33.70
33841;DHT22;20142;28.494;-16.312;2023-12-28T18:39:19;21.10;34.40
33841;DHT22;20142;28.494;-16.312;2023-12-28T18:44:26;20.90;34.50
33841;DHT22;20142;28.494;-16.312;2023-12-28T18:49:34;20.60;35.60
33841;DHT22;20142;28.494;-16.312;2023-12-28T18:54:35;20.20;36.10
33841;DHT22;20142;28.494;-16.312;2023-12-28T18:59:37;19.80;37.50
33841;DHT22;20142;28.494;-16.312;2023-12-28T19:04:39;19.50;37.80
33841;DHT22;20142;28.494;-16.312;2023-12-28T19:09:41;19.20;38.60
33841;DHT22;20142;28.494;-16.312;2023-12-28T19:14:42;19.00;39.10
33841;DHT22;20142;28.494;-16.312;2023-12-28T19:19:45;18.70;39.90
33841;DHT22;20142;28.494;-16.312;2023-12-28T19:24:46;18.60;40.30
33841;DHT22;20142;28.494;-16.312;2023-12-28T19:29:48;18.40;40.70
33841;DHT22;20142;28.494;-16.312;2023-12-28T19:34:50;18.20;40.80
33841;DHT22;20142;28.494;-16.312;2023-12-28T19:39:52;17.90;41.80
33841;DHT22;20142;28.494;-16.312;2023-12-28T19:44:54;17.80;42.50
33841;DHT22;20142;28.494;-16.312;2023-12-28T19:49:56;17.60;42.50
33841;DHT22;20142;28.494;-16.312;2023-12-28T19:54:58;17.50;42.80
33841;DHT22;20142;28.494;-16.312;2023-12-28T20:00:00;17.50;43.30
33841;DHT22;20142;28.494;-16.312;2023-12-28T20:05:02;17.40;43.20
33841;DHT22;20142;28.494;-16.312;2023-12-28T20:10:07;17.30;43.60
33841;DHT22;20142;28.494;-16.312;2023-12-28T20:15:09;17.30;43.70
33841;DHT22;20142;28.494;-16.312;2023-12-28T20:20:12;17.20;44.00
33841;DHT22;20142;28.494;-16.312;2023-12-28T20:25:14;17.10;44.00
33841;DHT22;20142;28.494;-16.312;2023-12-28T20:30:16;17.10;44.30
33841;DHT22;20142;28.494;-16.312;2023-12-28T20:35:18;17.10;44.10
33841;DHT22;20142;28.494;-16.312;2023-12-28T20:40:20;17.00;44.50
33841;DHT22;20142;28.494;-16.312;2023-12-28T20:45:21;16.90;44.50
33841;DHT22;20142;28.494;-16.312;2023-12-28T20:50:23;16.90;44.50
33841;DHT22;20142;28.494;-16.312;2023-12-28T20:55:25;16.80;44.70
33841;DHT22;20142;28.494;-16.312;2023-12-28T21:00:26;16.60;45.10
33841;DHT22;20142;28.494;-16.312;2023-12-28T21:05:28;16.50;45.40
33841;DHT22;20142;28.494;-16.312;2023-12-28T21:10:30;16.50;45.80
33841;DHT22;20142;28.494;-16.312;2023-12-28T21:15:33;16.40;45.70
33841;DHT22;20142;28.494;-16.312;2023-12-28T21:20:35;16.30;45.90
33841;DHT22;20142;28.494;-16.312;2023-12-28T21:25:37;16.50;46.00
33841;DHT22;20142;28.494;-16.312;2023-12-28T21:30:38;16.40;46.60
33841;DHT22;20142;28.494;-16.312;2023-12-28T21:35:42;16.10;47.00
33841;DHT22;20142;28.494;-16.312;2023-12-28T21:40:43;16.00;47.50
33841;DHT22;20142;28.494;-16.312;2023-12-28T21:45:45;16.00;47.80
33841;DHT22;20142;28.494;-16.312;2023-12-28T21:50:48;15.90;48.10
33841;DHT22;20142;28.494;-16.312;2023-12-28T21:55:50;15.80;48.70
33841;DHT22;20142;28.494;-16.312;2023-12-28T22:00:52;15.80;48.70
33841;DHT22;20142;28.494;-16.312;2023-12-28T22:05:54;15.70;49.40
33841;DHT22;20142;28.494;-16.312;2023-12-28T22:10:56;15.70;49.60
33841;DHT22;20142;28.494;-16.312;2023-12-28T22:15:58;15.50;50.00
33841;DHT22;20142;28.494;-16.312;2023-12-28T22:21:00;15.50;50.10
33841;DHT22;20142;28.494;-16.312;2023-12-28T22:26:01;15.20;50.90
33841;DHT22;20142;28.494;-16.312;2023-12-28T22:31:03;15.20;51.50
33841;DHT22;20142;28.494;-16.312;2023-12-28T22:36:05;15.10;51.80
33841;DHT22;20142;28.494;-16.312;2023-12-28T22:41:08;15.10;52.10
33841;DHT22;20142;28.494;-16.312;2023-12-28T22:46:10;15.10;52.00
33841;DHT22;20142;28.494;-16.312;2023-12-28T22:51:13;14.90;52.90
33841;DHT22;20142;28.494;-16.312;2023-12-28T22:56:15;14.90;53.40
33841;DHT22;20142;28.494;-16.312;2023-12-28T23:01:19;14.80;53.30
33841;DHT22;20142;28.494;-16.312;2023-12-28T23:06:21;14.70;53.60
33841;DHT22;20142;28.494;-16.312;2023-12-28T23:11:23;14.60;53.80
33841;DHT22;20142;28.494;-16.312;2023-12-28T23:16:25;14.60;54.30
33841;DHT22;20142;28.494;-16.312;2023-12-28T23:21:26;14.50;54.70
33841;DHT22;20142;28.494;-16.312;2023-12-28T23:26:28;14.40;55.00
33841;DHT22;20142;28.494;-16.312;2023-12-28T23:31:30;14.30;55.00
33841;DHT22;20142;28.494;-16.312;2023-12-28T23:36:31;14.20;55.60
33841;DHT22;20142;28.494;-16.312;2023-12-28T23:41:33;14.20;55.80
33841;DHT22;20142;28.494;-16.312;2023-12-28T23:46:37;14.20;55.80
33841;DHT22;20142;28.494;-16.312;2023-12-28T23:51:38;14.20;56.20
33841;DHT22;20142;28.494;-16.312;2023-12-28T23:56:40;14.00;56.50
